Time;durP1;ratioP1;P1;durP2;ratioP2;P2;SDS_P1;SDS_P2;PMS_P1;PMS_P2;Temp;Humidity;BMP_temperature;BMP_pressure;BME280_temperature;BME280_humidity;BME280_pressure;Samples;Min_cycle;Max_cycle;Signal;HPM_P1;HPM_P2
2023/08/05 00:03:01;;;;;;;1.80;1.20;;;;;;;22.47;53.51;100880.56;10450438;27;96810;-80
2023/08/05 00:08:05;;;;;;;2.60;1.17;;;;;;;22.26;55.17;100866.97;10433792;27;96871;-79
2023/08/05 00:13:10;;;;;;;2.10;0.97;;;;;;;22.15;55.62;100868.78;10438979;27;98424;-79
2023/08/05 00:18:13;;;;;;;2.60;1.50;;;;;;;22.08;56.19;100871.09;10439748;27;97315;-79
2023/08/05 00:23:16;;;;;;;1.87;1.30;;;;;;;22.01;56.14;100864.50;10440640;27;96902;-79
2023/08/05 00:28:21;;;;;;;1.50;1.20;;;;;;;21.89;56.59;100868.09;10440282;27;96711;-78
2023/08/05 00:33:24;;;;;;;1.65;0.95;;;;;;;21.85;56.51;100868.47;10438769;27;97449;-79
2023/08/05 00:38:28;;;;;;;1.67;1.00;;;;;;;21.69;57.44;100879.47;10441252;27;96790;-78
2023/08/05 00:43:32;;;;;;;1.70;1.30;;;;;;;21.66;57.13;100868.97;10440069;27;97075;-79
2023/08/05 00:48:36;;;;;;;3.08;1.17;;;;;;;21.61;57.66;100870.28;10439078;27;96785;-78
2023/08/05 00:53:40;;;;;;;2.40;1.30;;;;;;;21.58;57.58;100875.88;10440448;27;96823;-78
2023/08/05 00:58:45;;;;;;;1.95;1.13;;;;;;;21.52;57.37;100873.69;10427077;27;96806;-79
2023/08/05 01:03:49;;;;;;;1.40;1.00;;;;;;;21.55;56.89;100881.47;10438236;27;96803;-79
2023/08/05 01:08:54;;;;;;;2.10;1.00;;;;;;;21.45;57.32;100875.94;10435104;27;97348;-79
2023/08/05 01:13:59;;;;;;;1.52;1.02;;;;;;;21.46;57.84;100874.97;10436097;27;97010;-80
2023/08/05 01:19:05;;;;;;;1.63;1.10;;;;;;;21.27;58.86;100880.00;10449190;27;96800;-81
2023/08/05 01:24:17;;;;;;;2.85;1.20;;;;;;;21.26;58.86;100872.91;10406387;27;98618;-80
2023/08/05 01:29:22;;;;;;;2.25;1.10;;;;;;;21.22;58.80;100874.13;10429418;27;98757;-80
2023/08/05 01:34:27;;;;;;;1.63;1.08;;;;;;;21.00;59.94;100880.16;10409150;27;98761;-79
2023/08/05 01:39:30;;;;;;;2.30;1.25;;;;;;;20.95;60.54;100873.41;10392982;27;97142;-79
2023/08/05 01:44:35;;;;;;;1.35;1.00;;;;;;;20.97;60.43;100872.34;10403979;28;96858;-79
2023/08/05 01:49:38;;;;;;;2.38;1.20;;;;;;;21.02;59.42;100867.50;10435279;27;98958;-80
2023/08/05 01:54:41;;;;;;;3.13;1.23;;;;;;;21.04;59.37;100862.03;10435872;27;96767;-79
2023/08/05 01:59:46;;;;;;;2.17;1.17;;;;;;;21.01;59.54;100855.13;10412174;27;98769;-80
2023/08/05 02:04:49;;;;;;;2.97;1.00;;;;;;;20.97;59.90;100858.09;10412858;27;97154;-79
2023/08/05 02:09:53;;;;;;;1.63;0.95;;;;;;;21.05;58.41;100851.22;10433951;27;99364;-78
2023/08/05 02:14:57;;;;;;;1.83;1.10;;;;;;;21.21;57.17;100851.84;10417408;27;97659;-79
2023/08/05 02:20:01;;;;;;;1.25;1.00;;;;;;;21.28;56.57;100838.84;10433157;27;98811;-80
2023/08/05 02:25:05;;;;;;;1.75;1.23;;;;;;;20.89;59.23;100847.97;10418430;27;96826;-79
2023/08/05 02:30:10;;;;;;;3.08;1.00;;;;;;;20.70;60.36;100836.03;10421182;27;96963;-78
2023/08/05 02:35:14;;;;;;;2.67;1.13;;;;;;;20.62;60.25;100833.06;10435332;27;97919;-78
2023/08/05 02:40:17;;;;;;;1.75;1.15;;;;;;;20.54;60.47;100825.59;10443561;27;97153;-79
2023/08/05 02:45:22;;;;;;;2.10;1.10;;;;;;;20.66;58.59;100831.88;10439928;27;96851;-79
2023/08/05 02:50:25;;;;;;;1.60;0.90;;;;;;;20.89;57.58;100842.63;10440654;27;96908;-78
2023/08/05 02:55:29;;;;;;;1.65;1.30;;;;;;;20.94;56.90;100837.78;10422973;27;98579;-78
2023/08/05 03:00:33;;;;;;;2.28;1.08;;;;;;;21.01;56.34;100833.72;10441776;27;96842;-79
2023/08/05 03:05:37;;;;;;;1.35;1.10;;;;;;;20.97;56.34;100826.84;10422436;27;99086;-79
2023/08/05 03:10:42;;;;;;;1.70;1.00;;;;;;;21.03;55.84;100830.91;10444850;27;98446;-79
2023/08/05 03:15:46;;;;;;;3.13;1.35;;;;;;;21.06;55.40;100838.72;10442008;27;98753;-78
2023/08/05 03:20:50;;;;;;;2.00;1.13;;;;;;;21.10;55.08;100840.19;10394210;27;96808;-79
2023/08/05 03:25:54;;;;;;;1.80;1.00;;;;;;;21.26;53.92;100835.44;10431960;27;98420;-80
2023/08/05 03:30:58;;;;;;;1.25;0.90;;;;;;;21.18;54.12;100830.66;10439985;27;97102;-81
2023/08/05 03:36:02;;;;;;;2.15;1.00;;;;;;;21.28;53.34;100826.34;10437444;27;97558;-79
2023/08/05 03:41:05;;;;;;;1.58;1.02;;;;;;;21.33;52.96;100825.97;10429007;27;96855;-81
2023/08/05 03:46:10;;;;;;;1.38;0.90;;;;;;;21.32;52.58;100827.81;10432269;27;96978;-80
2023/08/05 03:51:15;;;;;;;1.90;0.98;;;;;;;21.30;52.39;100835.09;10460883;27;98625;-79
2023/08/05 03:56:22;;;;;;;2.67;1.23;;;;;;;21.24;52.64;100837.41;10466374;27;98595;-78
2023/08/05 04:01:29;;;;;;;2.67;1.05;;;;;;;21.17;52.14;100834.28;10463846;27;97571;-79
2023/08/05 04:06:32;;;;;;;1.65;1.05;;;;;;;21.19;52.11;100824.34;10452508;27;96773;-79
2023/08/05 04:11:37;;;;;;;0.85;0.68;;;;;;;21.17;52.00;100825.44;10471816;27;98676;-79
2023/08/05 04:16:41;;;;;;;1.50;0.80;;;;;;;21.24;51.40;100826.69;10458550;22;98376;-79
2023/08/05 04:21:47;;;;;;;1.30;0.80;;;;;;;21.24;51.54;100824.84;10339237;28;98322;-79
2023/08/05 04:26:51;;;;;;;1.42;0.80;;;;;;;21.18;51.20;100829.81;10369781;28;96726;-79
2023/08/05 04:31:56;;;;;;;2.42;0.98;;;;;;;21.20;51.30;100830.56;10363386;28;96927;-79
2023/08/05 04:37:15;;;;;;;1.73;1.00;;;;;;;21.12;51.28;100819.53;10367001;28;96987;-79
2023/08/05 04:42:20;;;;;;;1.02;0.70;;;;;;;21.14;51.58;100820.25;10354273;28;97784;-78
2023/08/05 04:47:25;;;;;;;1.05;0.82;;;;;;;21.25;51.18;100831.06;10364813;28;98580;-79
2023/08/05 04:52:29;;;;;;;1.88;1.10;;;;;;;21.28;50.93;100836.19;10364614;28;96931;-79
2023/08/05 04:57:32;;;;;;;1.37;1.00;;;;;;;21.35;50.33;100837.44;10370889;28;96823;-78
2023/08/05 05:02:37;;;;;;;1.25;0.95;;;;;;;21.36;50.43;100845.34;10360546;28;97021;-79
2023/08/05 05:07:41;;;;;;;0.73;0.60;;;;;;;21.45;50.12;100849.16;10368854;28;97786;-79
2023/08/05 05:12:44;;;;;;;1.05;0.80;;;;;;;21.47;50.03;100852.56;10369205;28;97737;-79
2023/08/05 05:17:50;;;;;;;1.15;0.90;;;;;;;21.37;50.19;100859.59;10380528;28;96940;-79
2023/08/05 05:22:53;;;;;;;1.65;0.82;;;;;;;21.41;49.52;100869.13;10368842;28;96993;-79
2023/08/05 05:27:57;;;;;;;1.77;0.93;;;;;;;21.46;49.52;100872.31;10355503;28;97565;-78
2023/08/05 05:33:02;;;;;;;2.17;1.20;;;;;;;21.44;49.39;100871.56;10343383;28;96968;-78
2023/08/05 05:38:05;;;;;;;1.73;0.85;;;;;;;21.43;49.66;100872.53;10360426;28;96839;-80
2023/08/05 05:43:09;;;;;;;2.83;1.13;;;;;;;21.42;49.69;100871.69;10394148;28;96794;-79
2023/08/05 05:48:14;;;;;;;1.23;0.65;;;;;;;21.36;49.42;100880.16;10400100;28;96717;-79
2023/08/05 05:53:17;;;;;;;2.03;0.90;;;;;;;21.36;49.85;100873.97;10402504;28;96900;-79
2023/08/05 05:58:21;;;;;;;2.72;1.35;;;;;;;21.34;49.53;100882.13;10359582;28;98266;-79
2023/08/05 06:03:26;;;;;;;1.52;1.00;;;;;;;21.45;49.36;100886.66;10369344;28;97119;-83
2023/08/05 06:08:30;;;;;;;2.42;1.05;;;;;;;21.52;48.91;100882.53;10363753;28;98301;-87
2023/08/05 06:13:34;;;;;;;1.50;1.00;;;;;;;21.54;48.91;100890.50;10396485;28;96931;-85
2023/08/05 06:18:38;;;;;;;1.52;0.60;;;;;;;21.65;48.32;100903.91;10390672;28;96828;-87
2023/08/05 06:23:42;;;;;;;2.13;0.93;;;;;;;21.72;48.12;100906.03;10378059;28;96772;-86
2023/08/05 06:28:45;;;;;;;1.80;0.98;;;;;;;21.82;47.84;100909.72;10346047;28;96754;-87
2023/08/05 06:33:50;;;;;;;1.67;1.00;;;;;;;21.88;47.44;100903.91;10377592;28;97269;-88
2023/08/05 06:38:53;;;;;;;1.65;0.90;;;;;;;22.04;47.23;100915.19;10379262;28;96935;-88
2023/08/05 06:43:57;;;;;;;1.92;0.80;;;;;;;22.14;47.00;100908.13;10374359;28;96906;-88
2023/08/05 06:49:02;;;;;;;2.20;0.98;;;;;;;22.25;46.27;100910.00;10375164;28;99109;-89
2023/08/05 06:54:05;;;;;;;1.50;1.00;;;;;;;22.40;45.82;100904.28;10364408;28;97035;-82
2023/08/05 06:59:09;;;;;;;2.00;1.00;;;;;;;22.43;45.83;100911.25;10378332;28;96705;-88
2023/08/05 07:04:14;;;;;;;2.38;0.77;;;;;;;22.58;45.32;100920.78;10350762;28;97155;-87
2023/08/05 07:09:17;;;;;;;1.67;0.70;;;;;;;22.70;45.11;100911.75;10321725;28;98131;-85
2023/08/05 07:14:21;;;;;;;1.83;0.85;;;;;;;22.92;44.86;100921.69;10344847;28;96851;-88
2023/08/05 07:19:26;;;;;;;2.10;1.00;;;;;;;23.03;44.46;100927.03;10348970;28;96805;-85
2023/08/05 07:24:29;;;;;;;2.00;1.10;;;;;;;23.05;43.76;100917.03;10374345;28;96887;-85
2023/08/05 07:29:32;;;;;;;1.38;0.82;;;;;;;23.24;43.86;100914.56;10363740;28;98198;-83
2023/08/05 07:34:37;;;;;;;1.55;0.75;;;;;;;23.40;43.40;100912.34;10355664;28;98080;-82
2023/08/05 07:39:45;;;;;;;2.45;0.80;;;;;;;23.48;43.12;100920.59;10349806;28;96851;-82
2023/08/05 07:44:51;;;;;;;1.95;0.82;;;;;;;23.70;42.68;100929.50;10346040;28;98112;-85
2023/08/05 07:49:56;;;;;;;1.85;1.17;;;;;;;23.69;41.75;100926.94;10357483;28;96790;-88
2023/08/05 07:55:00;;;;;;;1.58;0.88;;;;;;;23.89;41.78;100922.59;10365819;28;96831;-88
2023/08/05 08:00:04;;;;;;;1.67;0.90;;;;;;;23.98;41.20;100909.22;10366045;28;96716;-85
2023/08/05 08:05:09;;;;;;;1.38;0.80;;;;;;;24.06;40.85;100914.81;10374969;28;96794;-86
2023/08/05 08:10:12;;;;;;;1.70;0.63;;;;;;;24.24;40.25;100902.47;10370231;28;96843;-86
2023/08/05 08:15:16;;;;;;;2.00;1.03;;;;;;;24.43;39.32;100905.31;10374711;28;97178;-81
2023/08/05 08:20:21;;;;;;;1.00;0.70;;;;;;;24.63;39.33;100899.06;10369936;28;97159;-84
2023/08/05 08:25:25;;;;;;;2.70;0.80;;;;;;;24.81;38.98;100894.72;10370804;28;96824;-81
2023/08/05 08:30:29;;;;;;;1.83;0.82;;;;;;;24.99;38.89;100894.06;10372505;28;96986;-82
2023/08/05 08:35:34;;;;;;;1.57;0.60;;;;;;;25.04;38.25;100884.63;10370269;28;96877;-81
2023/08/05 08:40:37;;;;;;;1.70;0.70;;;;;;;25.24;38.14;100881.00;10367125;28;98606;-81
2023/08/05 08:45:42;;;;;;;0.90;0.75;;;;;;;25.31;37.96;100876.75;10363159;28;97236;-82
2023/08/05 08:50:48;;;;;;;1.05;0.70;;;;;;;25.56;37.69;100878.06;10370469;28;99278;-82
2023/08/05 08:55:53;;;;;;;0.93;0.70;;;;;;;25.71;37.45;100880.22;10371747;28;98579;-81
2023/08/05 09:00:58;;;;;;;3.67;0.77;;;;;;;25.97;37.31;100879.66;10354893;28;96836;-82
2023/08/05 09:06:03;;;;;;;1.08;0.80;;;;;;;26.04;36.92;100876.22;10362079;28;97622;-81
2023/08/05 09:11:07;;;;;;;1.10;0.75;;;;;;;26.24;37.29;100874.34;10368426;28;96809;-81
2023/08/05 09:16:13;;;;;;;2.08;0.93;;;;;;;26.47;36.57;100875.75;10369232;28;96863;-82
2023/08/05 09:21:23;;;;;;;1.60;0.70;;;;;;;26.50;35.82;100867.38;10369011;28;97497;-82
2023/08/05 09:26:28;;;;;;;1.50;0.70;;;;;;;26.64;35.72;100867.75;10370865;28;96791;-82
2023/08/05 09:31:31;;;;;;;0.80;0.77;;;;;;;26.75;34.84;100864.84;10372124;28;98102;-81
2023/08/05 09:36:40;;;;;;;2.80;0.90;;;;;;;27.04;35.10;100864.75;10371478;28;98564;-81
2023/08/05 09:41:51;;;;;;;1.55;0.93;;;;;;;27.15;33.95;100853.72;10377749;28;97808;-79
2023/08/05 09:46:59;;;;;;;1.08;0.60;;;;;;;27.25;34.26;100848.25;10377087;28;96869;-82
2023/08/05 09:52:06;;;;;;;1.83;0.90;;;;;;;27.51;34.69;100860.03;10373905;28;96789;-82
2023/08/05 09:57:13;;;;;;;1.60;0.85;;;;;;;27.54;34.55;100854.28;10375816;28;96832;-82
2023/08/05 10:02:23;;;;;;;1.30;0.70;;;;;;;27.88;34.23;100844.47;10373219;28;98215;-81
2023/08/05 10:07:28;;;;;;;1.67;0.90;;;;;;;28.09;34.19;100855.81;10372254;28;96853;-81
2023/08/05 10:12:35;;;;;;;1.42;0.85;;;;;;;28.16;34.21;100843.34;10374251;28;101159;-81
2023/08/05 10:17:40;;;;;;;1.42;0.98;;;;;;;28.39;34.47;100831.03;10376621;28;97294;-78
2023/08/05 10:23:02;;;;;;;1.13;0.60;;;;;;;28.47;33.47;100836.47;10378038;28;96743;-79
2023/08/05 10:28:05;;;;;;;1.25;0.80;;;;;;;28.63;32.84;100831.16;10372974;28;96804;-79
2023/08/05 10:33:09;;;;;;;1.20;0.63;;;;;;;28.81;31.26;100820.22;10377773;28;98429;-79
2023/08/05 10:38:16;;;;;;;1.25;0.70;;;;;;;28.94;31.83;100823.34;10377340;28;96852;-78
2023/08/05 10:43:30;;;;;;;0.73;0.50;;;;;;;29.16;31.50;100823.56;10373453;28;96812;-79
2023/08/05 10:48:35;;;;;;;;;;;;;;;29.37;30.96;100812.25;10375270;28;98582;-79
2023/08/05 10:53:40;;;;;;;1.25;0.70;;;;;;;29.51;30.50;100808.06;10372242;28;97663;-76
2023/08/05 10:58:48;;;;;;;3.22;0.88;;;;;;;29.79;31.18;100798.56;10365415;28;97956;-79
2023/08/05 11:03:56;;;;;;;0.88;0.60;;;;;;;29.99;30.54;100798.03;10363179;28;98379;-79
2023/08/05 11:09:02;;;;;;;0.60;0.47;;;;;;;30.08;30.18;100785.31;10373603;28;96829;-78
2023/08/05 11:14:06;;;;;;;1.08;0.70;;;;;;;29.97;29.73;100777.53;10377131;28;98324;-78
2023/08/05 11:19:11;;;;;;;0.52;0.43;;;;;;;30.37;30.02;100774.72;10370754;28;97040;-77
2023/08/05 11:24:19;;;;;;;1.08;0.57;;;;;;;30.58;29.76;100760.56;10343203;28;96779;-76
2023/08/05 11:29:22;;;;;;;1.40;0.63;;;;;;;30.89;29.65;100756.84;10337726;28;96975;-76
2023/08/05 11:34:25;;;;;;;1.70;0.90;;;;;;;30.92;29.71;100745.63;10340019;28;98435;-76
2023/08/05 11:39:30;;;;;;;;;;;;;;;30.92;28.97;100739.38;10334919;28;97219;-77
2023/08/05 11:44:33;;;;;;;0.95;0.60;;;;;;;31.02;28.69;100735.38;10335075;28;97088;-77
2023/08/05 11:49:37;;;;;;;1.42;0.70;;;;;;;31.37;28.59;100727.69;10337803;28;98655;-76
2023/08/05 11:54:43;;;;;;;;;;;;;;;31.50;28.31;100715.13;10340650;28;96864;-78
2023/08/05 11:59:47;;;;;;;2.10;0.70;;;;;;;31.85;28.21;100714.50;10354495;28;96843;-79
2023/08/05 12:04:57;;;;;;;2.15;0.60;;;;;;;32.17;27.88;100707.84;10332803;28;98244;-78
2023/08/05 12:10:10;;;;;;;1.42;0.70;;;;;;;32.45;27.96;100703.41;10333967;28;97460;-76
2023/08/05 12:15:15;;;;;;;1.30;0.70;;;;;;;32.48;26.47;100694.88;10330013;28;98879;-76
2023/08/05 12:20:19;;;;;;;2.92;0.80;;;;;;;32.91;26.57;100695.81;10332673;28;96792;-76
2023/08/05 12:25:24;;;;;;;0.80;0.60;;;;;;;32.77;25.57;100689.34;10325773;28;96972;-76
2023/08/05 12:30:27;;;;;;;1.50;0.80;;;;;;;32.80;26.34;100675.31;10329715;28;96736;-76
2023/08/05 12:35:30;;;;;;;1.45;0.73;;;;;;;32.95;25.76;100664.41;10315997;28;98988;-76
2023/08/05 12:40:35;;;;;;;1.50;0.70;;;;;;;33.25;25.81;100669.53;10325772;28;98662;-81
2023/08/05 12:45:39;;;;;;;1.10;0.70;;;;;;;33.32;25.73;100656.78;10330906;28;97115;-81
2023/08/05 12:50:42;;;;;;;1.40;0.75;;;;;;;33.41;25.00;100658.34;10326689;28;96827;-81
2023/08/05 12:55:47;;;;;;;0.68;0.55;;;;;;;33.40;23.66;100653.91;10332330;28;96819;-79
2023/08/05 13:00:50;;;;;;;1.95;1.00;;;;;;;33.65;23.49;100637.09;10329781;28;97232;-81
2023/08/05 13:05:54;;;;;;;0.77;0.55;;;;;;;33.77;24.66;100632.75;10324851;28;99843;-86
2023/08/05 13:10:59;;;;;;;1.15;0.80;;;;;;;33.91;24.12;100626.34;10331339;28;97833;-82
2023/08/05 13:16:02;;;;;;;2.35;0.85;;;;;;;34.20;24.30;100617.88;10324168;28;97236;-82
2023/08/05 13:21:05;;;;;;;2.40;0.70;;;;;;;34.40;24.19;100613.34;10329826;28;98711;-77
2023/08/05 13:26:11;;;;;;;1.88;0.77;;;;;;;34.58;24.19;100612.81;10331331;28;98594;-78
2023/08/05 13:31:14;;;;;;;3.10;1.05;;;;;;;34.51;23.79;100599.09;10326712;28;96945;-80
2023/08/05 13:36:18;;;;;;;2.00;0.90;;;;;;;34.72;24.04;100588.00;10329963;28;97609;-80
2023/08/05 13:41:22;;;;;;;1.08;0.65;;;;;;;35.13;22.86;100577.72;10335446;28;97683;-78
2023/08/05 13:46:26;;;;;;;2.08;0.63;;;;;;;35.11;21.86;100568.06;10332662;28;97699;-82
2023/08/05 13:51:29;;;;;;;1.40;0.73;;;;;;;35.28;21.66;100566.56;10320965;28;97050;-80
2023/08/05 13:56:34;;;;;;;1.00;0.60;;;;;;;35.07;22.01;100550.38;10356302;28;96948;-81
2023/08/05 14:01:37;;;;;;;1.45;0.65;;;;;;;35.01;21.53;100538.38;10327262;28;97109;-81
2023/08/05 14:06:41;;;;;;;1.45;0.80;;;;;;;35.13;21.59;100546.81;10328111;28;97553;-81
2023/08/05 14:11:45;;;;;;;1.90;0.70;;;;;;;35.07;22.09;100529.34;10330857;28;96867;-81
2023/08/05 14:16:50;;;;;;;0.88;0.68;;;;;;;35.06;21.94;100533.09;10336648;28;96902;-81
2023/08/05 14:21:53;;;;;;;0.88;0.70;;;;;;;35.34;22.35;100530.97;10378003;28;97955;-81
2023/08/05 14:26:58;;;;;;;1.33;0.82;;;;;;;35.22;23.00;100520.88;10372552;28;96772;-80
2023/08/05 14:32:01;;;;;;;1.63;0.88;;;;;;;35.00;22.66;100512.09;10376348;28;96900;-81
2023/08/05 14:37:05;;;;;;;1.45;0.70;;;;;;;35.42;22.20;100510.75;10377956;28;96868;-85
2023/08/05 14:42:11;;;;;;;1.80;1.08;;;;;;;35.71;21.88;100507.53;10377087;28;96933;-82
2023/08/05 14:47:15;;;;;;;2.20;0.70;;;;;;;35.43;21.54;100507.81;10375989;28;97698;-78
2023/08/05 14:52:18;;;;;;;1.52;0.98;;;;;;;35.27;21.46;100493.75;10378821;28;96784;-78
2023/08/05 14:57:23;;;;;;;1.52;1.10;;;;;;;35.34;21.53;100492.66;10377371;28;97010;-78
2023/08/05 15:02:27;;;;;;;3.10;1.27;;;;;;;35.08;21.79;100489.97;10378347;28;96846;-78
2023/08/05 15:07:30;;;;;;;1.77;1.10;;;;;;;34.93;21.16;100472.06;10378991;28;96986;-78
2023/08/05 15:12:35;;;;;;;2.00;1.10;;;;;;;35.17;21.00;100475.00;10377890;28;96646;-78
2023/08/05 15:17:41;;;;;;;2.00;1.17;;;;;;;35.33;21.07;100471.81;10376738;28;96676;-78
2023/08/05 15:22:44;;;;;;;1.70;1.27;;;;;;;35.10;21.74;100459.66;10376580;28;96778;-78
2023/08/05 15:27:49;;;;;;;1.48;1.20;;;;;;;35.11;21.61;100459.47;10377521;28;96722;-77
2023/08/05 15:32:52;;;;;;;2.63;1.10;;;;;;;34.83;21.74;100444.31;10376571;28;96697;-77
2023/08/05 15:37:56;;;;;;;1.70;1.10;;;;;;;34.93;21.55;100437.41;10376109;28;97811;-77
2023/08/05 15:43:00;;;;;;;1.48;0.95;;;;;;;34.89;21.64;100433.34;10377128;28;96763;-76
2023/08/05 15:48:05;;;;;;;1.85;0.90;;;;;;;35.16;21.02;100436.91;10366389;28;96788;-77
2023/08/05 15:53:08;;;;;;;1.63;1.00;;;;;;;35.04;20.38;100436.75;10365374;28;96826;-77
2023/08/05 15:58:13;;;;;;;1.10;0.70;;;;;;;35.23;20.50;100430.38;10377525;28;96764;-77
2023/08/05 16:03:17;;;;;;;1.42;0.82;;;;;;;35.40;19.88;100436.22;10376762;28;97001;-78
2023/08/05 16:08:21;;;;;;;2.33;1.10;;;;;;;35.27;20.60;100430.78;10374956;28;97235;-78
2023/08/05 16:13:27;;;;;;;2.05;1.33;;;;;;;35.05;20.30;100437.56;10374838;28;96730;-78
2023/08/05 16:18:30;;;;;;;3.53;1.90;;;;;;;34.79;20.89;100427.50;10375644;28;97001;-77
2023/08/05 16:23:33;;;;;;;2.28;1.77;;;;;;;34.61;20.60;100419.13;10374893;28;97021;-77
2023/08/05 16:28:38;;;;;;;2.50;1.58;;;;;;;34.60;21.09;100417.41;10375709;28;96731;-78
2023/08/05 16:33:41;;;;;;;2.67;1.05;;;;;;;34.56;22.15;100422.47;10375476;28;96891;-77
2023/08/05 16:38:46;;;;;;;1.83;1.00;;;;;;;34.45;22.16;100419.53;10374466;28;96763;-78
2023/08/05 16:43:51;;;;;;;1.80;1.20;;;;;;;34.50;23.09;100419.75;10374460;28;96687;-78
2023/08/05 16:48:55;;;;;;;3.83;2.30;;;;;;;34.33;22.88;100404.78;10357028;22;96967;-78
2023/08/05 16:53:58;;;;;;;2.97;2.05;;;;;;;34.28;23.38;100410.03;10332701;28;96654;-83
2023/08/05 16:59:03;;;;;;;2.13;1.42;;;;;;;34.33;23.89;100410.25;10328267;28;97004;-83
2023/08/05 17:04:12;;;;;;;2.50;1.80;;;;;;;34.23;23.62;100407.09;10330532;28;98592;-83
2023/08/05 17:09:16;;;;;;;2.72;1.85;;;;;;;34.06;24.02;100403.91;10370509;28;97003;-78
2023/08/05 17:14:21;;;;;;;3.20;2.20;;;;;;;33.96;24.33;100399.91;10338401;28;97388;-83
2023/08/05 17:19:24;;;;;;;2.75;1.85;;;;;;;33.86;24.73;100396.72;10331395;28;96780;-83
2023/08/05 17:24:28;;;;;;;2.50;1.90;;;;;;;33.94;24.41;100389.19;10331425;28;98368;-83
2023/08/05 17:29:32;;;;;;;2.22;1.50;;;;;;;34.14;24.17;100389.22;10329498;28;96863;-84
2023/08/05 17:34:36;;;;;;;1.67;1.30;;;;;;;34.08;24.08;100385.44;10326932;28;97029;-82
2023/08/05 17:39:41;;;;;;;2.22;1.30;;;;;;;34.02;24.32;100385.44;10333622;28;96695;-82
2023/08/05 17:44:47;;;;;;;29.23;22.70;;;;;;;34.02;24.27;100380.78;10298438;28;96676;-86
2023/08/05 17:49:50;;;;;;;1558.88;872.60;;;;;;;34.13;24.65;100391.09;10374921;28;96890;-84
2023/08/05 17:54:53;;;;;;;62.58;56.33;;;;;;;34.07;25.11;100391.09;10393591;28;96772;-85
2023/08/05 17:59:58;;;;;;;17.30;15.60;;;;;;;34.01;26.10;100389.19;10425676;28;96698;-83
2023/08/05 18:05:02;;;;;;;6.78;6.05;;;;;;;33.85;26.21;100387.66;10388240;28;96746;-86
2023/08/05 18:10:08;;;;;;;4.85;3.22;;;;;;;33.81;26.61;100391.88;10427633;28;96973;-85
2023/08/05 18:15:13;;;;;;;2.58;2.05;;;;;;;33.70;26.53;100403.38;10428107;28;96834;-88
2023/08/05 18:20:16;;;;;;;3.78;2.45;;;;;;;33.56;27.08;100409.00;10417782;28;97139;-85
2023/08/05 18:25:20;;;;;;;834.75;635.33;;;;;;;33.45;28.81;100405.81;10385621;28;96901;-85
2023/08/05 18:30:25;;;;;;;1100.38;764.35;;;;;;;33.17;30.20;100404.19;10389746;28;96880;-85
2023/08/05 18:35:28;;;;;;;240.65;195.50;;;;;;;32.72;31.08;100402.00;10386601;28;97325;-88
2023/08/05 18:40:36;;;;;;;88.45;72.30;;;;;;;32.33;32.76;100407.94;10378448;28;96732;-86
2023/08/05 18:45:41;;;;;;;27.05;24.00;;;;;;;32.15;32.69;100400.25;10384647;28;96582;-85
2023/08/05 18:50:45;;;;;;;86.07;60.63;;;;;;;31.88;33.34;100406.47;10385501;28;96821;-84
2023/08/05 18:55:49;;;;;;;17.50;13.85;;;;;;;31.70;34.37;100400.59;10383626;28;96679;-86
2023/08/05 19:00:54;;;;;;;23.10;16.80;;;;;;;31.50;34.46;100396.81;10384981;28;96686;-84
2023/08/05 19:05:58;;;;;;;11.80;8.57;;;;;;;31.41;34.88;100400.66;10384946;28;96543;-84
2023/08/05 19:11:01;;;;;;;8.10;5.25;;;;;;;31.29;35.47;100408.47;10382820;28;96811;-85
2023/08/05 19:16:06;;;;;;;;;;;;;;;31.15;35.93;100406.59;10378640;28;96800;-86
2023/08/05 19:21:10;;;;;;;3.55;1.95;;;;;;;30.96;35.94;100411.75;10415095;28;96810;-84
2023/08/05 19:26:13;;;;;;;4.03;2.22;;;;;;;30.79;36.44;100411.09;10426972;28;97618;-84
2023/08/05 19:31:18;;;;;;;4.28;2.50;;;;;;;30.67;36.97;100422.56;10369777;28;96858;-85
2023/08/05 19:36:21;;;;;;;3.35;2.17;;;;;;;30.57;37.53;100419.28;10365071;28;96828;-82
2023/08/05 19:41:25;;;;;;;3.72;1.83;;;;;;;30.38;37.70;100420.66;10387000;28;97000;-81
2023/08/05 19:46:29;;;;;;;;;;;;;;;30.17;38.37;100420.47;10384868;28;96908;-84
2023/08/05 19:51:32;;;;;;;3.33;2.40;;;;;;;30.13;38.25;100419.16;10398217;28;96752;-85
2023/08/05 19:56:36;;;;;;;3.22;2.45;;;;;;;29.83;39.73;100431.72;10410421;28;96862;-84
2023/08/05 20:01:40;;;;;;;17.55;5.38;;;;;;;29.44;42.41;100440.88;10396090;28;99283;-83
2023/08/05 20:06:44;;;;;;;2.95;1.70;;;;;;;26.93;52.89;100449.78;10393253;28;96906;-88
2023/08/05 20:11:48;;;;;;;3.63;1.95;;;;;;;25.91;61.06;100449.59;10375375;28;97190;-86
2023/08/05 20:16:56;;;;;;;3.22;1.73;;;;;;;25.54;60.27;100456.88;10361881;28;98721;-88
2023/08/05 20:21:59;;;;;;;4.18;2.33;;;;;;;25.51;58.34;100462.59;10369317;28;97378;-91
2023/08/05 20:27:03;;;;;;;3.22;1.77;;;;;;;25.84;56.41;100470.06;10392145;28;96806;-92
2023/08/05 20:32:09;;;;;;;5.32;2.92;;;;;;;26.01;53.87;100474.63;10373849;28;97073;-90
2023/08/05 20:37:12;;;;;;;3.75;2.55;;;;;;;26.08;53.33;100483.81;10368922;28;96811;-90
2023/08/05 20:42:16;;;;;;;5.63;3.38;;;;;;;26.39;52.57;100487.84;10365978;28;97749;-82
2023/08/05 20:47:21;;;;;;;3.30;2.13;;;;;;;26.43;52.62;100485.69;10397822;28;98602;-87
2023/08/05 20:52:28;;;;;;;2.72;1.90;;;;;;;26.26;52.41;100495.47;10358386;28;98893;-83
2023/08/05 20:57:31;;;;;;;2.85;1.73;;;;;;;26.22;52.30;100504.84;10387574;28;96762;-84
2023/08/05 21:02:36;;;;;;;3.22;1.98;;;;;;;26.26;52.24;100508.09;10386898;28;97712;-83
2023/08/05 21:07:40;;;;;;;5.38;3.78;;;;;;;26.21;52.31;100516.66;10375954;28;97019;-83
2023/08/05 21:12:43;;;;;;;5.32;2.65;;;;;;;26.21;52.13;100513.09;10378632;28;96763;-83
2023/08/05 21:17:48;;;;;;;3.73;2.10;;;;;;;26.04;52.31;100513.94;10367587;28;98507;-83
2023/08/05 21:22:51;;;;;;;2.72;1.83;;;;;;;26.15;51.43;100521.78;10395408;28;98228;-83
2023/08/05 21:27:55;;;;;;;3.67;2.15;;;;;;;26.02;51.60;100515.94;10384441;28;97700;-80
2023/08/05 21:32:59;;;;;;;2.58;1.70;;;;;;;26.12;51.22;100517.56;10383581;28;98805;-82
2023/08/05 21:38:03;;;;;;;1.60;1.45;;;;;;;26.41;50.58;100520.06;10390346;28;96918;-81
2023/08/05 21:43:06;;;;;;;3.85;2.08;;;;;;;26.71;49.07;100525.06;10372729;28;97799;-82
2023/08/05 21:48:11;;;;;;;2.95;1.70;;;;;;;26.68;49.53;100528.09;10352757;28;98046;-82
2023/08/05 21:53:14;;;;;;;2.75;1.85;;;;;;;26.74;49.31;100528.28;10334998;28;97967;-81
2023/08/05 21:58:19;;;;;;;3.17;1.65;;;;;;;26.54;49.31;100534.03;10336182;28;96977;-81
2023/08/05 22:03:23;;;;;;;2.65;1.40;;;;;;;26.35;49.80;100534.97;10337845;28;98804;-81
2023/08/05 22:08:30;;;;;;;4.13;1.85;;;;;;;26.32;50.59;100539.84;10340756;28;97621;-81
2023/08/05 22:13:33;;;;;;;4.87;2.13;;;;;;;26.57;49.82;100545.38;10337898;28;99197;-81
2023/08/05 22:18:39;;;;;;;2.95;1.55;;;;;;;26.60;49.49;100546.91;10320728;28;97118;-84
2023/08/05 22:23:42;;;;;;;2.92;1.90;;;;;;;26.56;49.52;100540.97;10323946;28;96782;-81
2023/08/05 22:28:45;;;;;;;2.23;1.53;;;;;;;26.36;49.91;100542.13;10340010;28;97743;-81
2023/08/05 22:33:50;;;;;;;2.33;1.52;;;;;;;25.83;51.23;100546.59;10344460;28;96703;-80
2023/08/05 22:38:54;;;;;;;3.65;1.95;;;;;;;26.20;50.22;100543.78;10331870;28;96990;-82
2023/08/05 22:43:57;;;;;;;3.17;1.77;;;;;;;26.18;50.03;100552.03;10365797;28;96701;-82
2023/08/05 22:49:01;;;;;;;4.13;1.80;;;;;;;26.11;50.52;100542.00;10369323;28;96881;-82
2023/08/05 22:54:05;;;;;;;4.20;1.85;;;;;;;26.02;50.55;100546.47;10374403;28;96813;-83
2023/08/05 22:59:08;;;;;;;3.10;1.77;;;;;;;25.91;50.83;100546.66;10372040;28;97287;-82
2023/08/05 23:04:13;;;;;;;;;;;;;;;25.96;51.63;100546.22;10375752;28;98663;-83
2023/08/05 23:09:18;;;;;;;2.33;1.77;;;;;;;25.85;50.70;100545.41;10372861;28;97714;-83
2023/08/05 23:14:21;;;;;;;3.17;1.95;;;;;;;25.86;50.95;100548.97;10377428;28;96952;-82
2023/08/05 23:19:26;;;;;;;3.30;1.83;;;;;;;25.56;52.35;100533.06;10418642;28;96798;-82